createdAt,value
2023-03-12T00:00:42.257Z,-2.80
2023-03-12T00:10:36.896Z,-3.00
2023-03-12T00:18:03.079Z,-3.00
2023-03-12T00:25:29.113Z,-3.10
2023-03-12T00:35:26.794Z,-3.30
2023-03-12T00:50:17.375Z,-3.50
2023-03-12T00:52:46.865Z,-3.50
2023-03-12T01:00:13.696Z,-3.60
2023-03-12T01:02:42.199Z,-3.50
2023-03-12T01:05:13.386Z,-3.50
2023-03-12T01:10:14.852Z,-3.60
2023-03-12T01:15:13.612Z,-3.70
2023-03-12T01:20:11.826Z,-2.60
2023-03-12T01:22:40.833Z,-3.70
2023-03-12T01:25:11.418Z,-3.70
2023-03-12T01:30:09.242Z,-3.90
2023-03-12T01:40:03.090Z,-4.00
2023-03-12T01:42:32.476Z,-4.10
2023-03-12T01:45:02.053Z,-4.10
2023-03-12T01:47:32.851Z,-4.00
2023-03-12T01:50:03.206Z,-4.10
2023-03-12T01:52:35.020Z,-4.10
2023-03-12T01:55:06.787Z,-4.10
2023-03-12T01:57:39.067Z,-4.10
2023-03-12T02:00:11.966Z,-4.20
2023-03-12T02:02:40.791Z,-4.20
2023-03-12T02:05:16.930Z,-4.30
2023-03-12T02:12:43.098Z,-4.30
2023-03-12T02:15:12.483Z,-4.30
2023-03-12T02:20:16.421Z,-4.30
2023-03-12T02:22:50.458Z,-4.30
2023-03-12T02:25:27.576Z,-4.30
2023-03-12T02:30:24.332Z,-4.40
2023-03-12T02:32:53.166Z,-4.40
2023-03-12T02:37:50.680Z,-4.50
2023-03-12T02:40:26.448Z,-4.50
2023-03-12T02:42:55.155Z,-4.50
2023-03-12T02:57:46.380Z,-4.70
2023-03-12T03:00:16.308Z,-4.70
2023-03-12T03:07:41.658Z,-4.70
2023-03-12T03:10:11.785Z,-4.60
2023-03-12T03:15:11.399Z,-4.60
2023-03-12T03:20:11.446Z,-4.50
2023-03-12T03:22:40.245Z,-4.50
2023-03-12T03:25:10.610Z,-4.60
2023-03-12T03:30:09.979Z,-4.50
2023-03-12T03:35:07.204Z,-4.50
2023-03-12T03:57:28.812Z,-4.00
2023-03-12T04:02:30.883Z,-4.00
2023-03-12T04:04:59.714Z,-4.00
2023-03-12T04:18:03.824Z,-3.80
2023-03-12T04:20:52.725Z,-3.80
2023-03-12T04:33:56.613Z,-3.70
2023-03-12T04:51:16.510Z,-3.70
2023-03-12T05:01:20.442Z,-3.70
2023-03-12T05:06:18.481Z,-3.60
2023-03-12T05:11:15.458Z,-3.60
2023-03-12T05:16:12.602Z,-3.60
2023-03-12T05:18:41.320Z,-3.60
2023-03-12T05:21:11.105Z,-3.60
2023-03-12T05:23:42.663Z,-3.50
2023-03-12T05:26:18.399Z,-3.50
2023-03-12T05:31:15.988Z,-3.50
2023-03-12T05:33:44.364Z,-3.50
2023-03-12T05:36:13.142Z,-3.50
2023-03-12T05:38:43.529Z,-3.50
2023-03-12T05:41:18.630Z,-3.50
2023-03-12T05:56:13.673Z,-3.30
2023-03-12T06:01:14.822Z,-3.20
2023-03-12T06:11:11.749Z,-3.00
2023-03-12T06:16:10.778Z,-2.80
2023-03-12T06:21:15.186Z,-2.60
2023-03-12T06:23:43.867Z,-2.60
2023-03-12T06:26:14.206Z,-2.60
2023-03-12T06:33:39.289Z,-2.40
2023-03-12T06:36:08.647Z,-2.30
2023-03-12T06:41:06.876Z,-1.90
2023-03-12T06:43:38.004Z,-1.70
2023-03-12T06:46:07.127Z,-1.40
2023-03-12T06:51:05.718Z,-0.60
2023-03-12T06:53:34.347Z,-1.00
2023-03-12T06:58:30.908Z,-0.70
2023-03-12T07:01:00.388Z,-0.70
2023-03-12T07:05:58.090Z,-0.60
2023-03-12T07:08:29.815Z,-0.60
2023-03-12T07:13:29.392Z,-0.60
2023-03-12T07:15:57.436Z,-0.60
2023-03-12T07:18:27.020Z,-0.50
2023-03-12T07:20:55.444Z,-0.50
2023-03-12T07:23:23.955Z,-0.50
2023-03-12T07:25:52.543Z,-0.60
2023-03-12T07:28:21.526Z,-0.70
2023-03-12T07:33:21.098Z,-0.70
2023-03-12T07:35:51.920Z,-0.70
2023-03-12T07:40:51.979Z,-0.70
2023-03-12T07:53:18.660Z,-0.30
2023-03-12T07:55:48.190Z,-0.20
2023-03-12T08:10:41.235Z,0.20
2023-03-12T08:20:34.951Z,1.30
2023-03-12T08:28:00.820Z,1.90
2023-03-12T08:30:30.304Z,2.10
2023-03-12T08:35:26.978Z,2.20
2023-03-12T08:37:56.929Z,2.30
2023-03-12T08:40:25.130Z,2.20
2023-03-12T08:42:53.034Z,2.40
2023-03-12T08:45:22.429Z,4.90
2023-03-12T08:50:20.473Z,2.40
2023-03-12T08:52:48.475Z,2.30
2023-03-12T08:55:16.785Z,2.20
2023-03-12T08:57:44.783Z,1.80
2023-03-12T09:00:16.031Z,1.70
2023-03-12T09:02:46.503Z,1.90
2023-03-12T09:05:15.484Z,1.80
2023-03-12T09:10:12.595Z,1.80
2023-03-12T09:15:10.249Z,1.90
2023-03-12T09:17:38.775Z,1.70
2023-03-12T09:20:10.365Z,1.70
2023-03-12T09:22:38.508Z,1.60
2023-03-12T09:25:09.115Z,1.80
2023-03-12T09:27:38.449Z,1.90
2023-03-12T09:30:08.479Z,1.80
2023-03-12T09:32:36.910Z,1.70
2023-03-12T09:35:05.282Z,1.90
2023-03-12T09:37:34.909Z,2.30
2023-03-12T09:40:07.603Z,2.80
2023-03-12T09:42:42.421Z,3.00
2023-03-12T09:45:17.759Z,3.30
2023-03-12T09:47:50.059Z,3.10
2023-03-12T09:50:23.684Z,3.00
2023-03-12T09:52:58.888Z,3.10
2023-03-12T09:55:28.877Z,2.80
2023-03-12T09:57:59.324Z,3.00
2023-03-12T10:00:32.727Z,3.10
2023-03-12T10:03:20.989Z,3.30
2023-03-12T10:06:07.599Z,3.20
2023-03-12T10:08:48.244Z,3.00
2023-03-12T10:11:26.443Z,3.20
2023-03-12T10:14:05.115Z,3.30
2023-03-12T10:17:12.573Z,3.20
2023-03-12T10:23:14.261Z,3.30
2023-03-12T10:26:06.605Z,3.20
2023-03-12T10:28:52.377Z,3.30
2023-03-12T10:34:27.513Z,3.50
2023-03-12T10:37:00.205Z,3.40
2023-03-12T10:39:51.892Z,3.30
2023-03-12T10:42:30.474Z,0.40
2023-03-12T10:45:16.683Z,3.40
2023-03-12T10:48:01.567Z,3.50
2023-03-12T10:50:40.419Z,3.60
2023-03-12T10:53:23.999Z,3.30
2023-03-12T10:56:11.227Z,3.60
2023-03-12T10:58:47.829Z,3.40
2023-03-12T11:01:23.993Z,3.40
2023-03-12T11:03:55.671Z,3.30
2023-03-12T11:06:32.951Z,3.50
2023-03-12T11:12:28.380Z,3.90
2023-03-12T11:14:58.306Z,3.60
2023-03-12T11:30:44.968Z,3.60
2023-03-12T11:33:20.624Z,3.70
2023-03-12T11:36:05.310Z,3.90
2023-03-12T11:39:04.100Z,4.10
2023-03-12T11:54:40.631Z,4.10
2023-03-12T12:06:30.618Z,4.10
2023-03-12T12:09:56.309Z,4.30
2023-03-12T12:17:25.509Z,4.10
2023-03-12T12:20:35.136Z,3.90
2023-03-12T12:24:05.686Z,3.90
2023-03-12T12:27:04.082Z,3.90
2023-03-12T12:30:11.772Z,4.00
2023-03-12T12:33:08.100Z,4.00
2023-03-12T12:35:47.586Z,4.10
2023-03-12T12:38:37.590Z,4.00
2023-03-12T12:41:17.159Z,4.00
2023-03-12T12:43:49.328Z,4.00
2023-03-12T12:46:22.021Z,3.90
2023-03-12T12:48:54.232Z,4.00
2023-03-12T12:51:25.578Z,4.00
2023-03-12T12:54:01.744Z,4.10
2023-03-12T12:56:34.868Z,4.20
2023-03-12T12:59:21.519Z,4.20
2023-03-12T13:01:51.457Z,4.10
2023-03-12T13:04:28.347Z,4.20
2023-03-12T13:06:59.117Z,4.20
2023-03-12T13:09:39.905Z,4.30
2023-03-12T13:12:28.049Z,4.40
2023-03-12T13:14:57.644Z,4.30
2023-03-12T13:17:31.257Z,4.30
2023-03-12T13:20:15.362Z,4.30
2023-03-12T13:23:10.590Z,4.40
2023-03-12T13:25:52.377Z,4.40
2023-03-12T13:28:36.573Z,4.40
2023-03-12T13:31:39.757Z,4.50
2023-03-12T13:34:47.692Z,4.50
2023-03-12T13:37:57.949Z,4.50
2023-03-12T13:40:38.671Z,4.60
2023-03-12T13:43:20.830Z,4.60
2023-03-12T13:46:04.474Z,4.70
2023-03-12T13:48:45.960Z,4.80
2023-03-12T13:51:37.698Z,4.80
2023-03-12T13:56:35.287Z,4.90
2023-03-12T13:59:05.653Z,4.90
2023-03-12T14:01:38.686Z,5.00
2023-03-12T14:04:13.512Z,6.80
2023-03-12T14:06:59.871Z,5.10
2023-03-12T14:09:35.247Z,5.20
2023-03-12T14:12:12.133Z,5.30
2023-03-12T14:15:05.887Z,5.30
2023-03-12T14:17:35.582Z,5.30
2023-03-12T14:20:11.762Z,5.40
2023-03-12T14:22:42.728Z,5.50
2023-03-12T14:25:15.844Z,5.50
2023-03-12T14:27:48.557Z,5.60
2023-03-12T14:30:22.476Z,5.60
2023-03-12T14:32:54.997Z,5.60
2023-03-12T14:35:28.396Z,5.00
2023-03-12T14:38:02.376Z,5.80
2023-03-12T14:40:39.666Z,5.90
2023-03-12T14:43:24.981Z,6.30
2023-03-12T14:45:56.906Z,5.90
2023-03-12T14:48:30.350Z,5.90
2023-03-12T14:51:03.064Z,5.90
2023-03-12T14:53:33.735Z,6.00
2023-03-12T14:56:08.146Z,6.10
2023-03-12T14:58:43.002Z,6.10
2023-03-12T15:01:24.960Z,6.20
2023-03-12T15:04:04.667Z,6.20
2023-03-12T15:07:01.356Z,6.20
2023-03-12T15:09:36.250Z,6.20
2023-03-12T15:12:07.224Z,6.30
2023-03-12T15:14:39.878Z,6.30
2023-03-12T15:19:40.478Z,6.40
2023-03-12T15:22:28.116Z,6.40
2023-03-12T15:25:03.687Z,6.50
2023-03-12T15:27:35.696Z,6.50
2023-03-12T15:35:14.519Z,6.60
2023-03-12T15:37:53.584Z,6.80
2023-03-12T15:40:23.815Z,6.70
2023-03-12T15:42:52.809Z,6.70
2023-03-12T15:45:23.763Z,6.70
2023-03-12T15:47:54.087Z,6.70
2023-03-12T15:50:24.888Z,6.70
2023-03-12T15:53:06.691Z,6.70
2023-03-12T15:55:36.461Z,6.70
2023-03-12T15:58:25.013Z,6.70
2023-03-12T16:00:59.981Z,6.80
2023-03-12T16:06:31.063Z,6.80
2023-03-12T16:09:04.786Z,6.80
2023-03-12T16:11:34.881Z,6.80
2023-03-12T16:14:05.700Z,6.80
2023-03-12T16:19:02.298Z,6.70
2023-03-12T16:21:30.402Z,6.70
2023-03-12T16:26:28.163Z,6.70
2023-03-12T16:36:21.718Z,6.70
2023-03-12T16:38:49.730Z,6.60
2023-03-12T16:41:19.631Z,6.60
2023-03-12T16:43:53.748Z,6.60
2023-03-12T16:46:23.380Z,6.50
2023-03-12T16:48:53.727Z,6.40
2023-03-12T16:54:05.275Z,6.30
2023-03-12T16:56:38.137Z,6.30
2023-03-12T16:59:15.930Z,6.30
2023-03-12T17:04:12.831Z,6.30
2023-03-12T17:06:41.311Z,6.30
2023-03-12T17:11:39.438Z,6.30
2023-03-12T17:14:17.609Z,6.30
2023-03-12T17:19:14.627Z,6.20
2023-03-12T17:21:43.298Z,6.20
2023-03-12T17:24:13.891Z,6.20
2023-03-12T17:26:42.231Z,6.10
2023-03-12T17:29:11.661Z,6.10
2023-03-12T17:31:39.633Z,6.10
2023-03-12T17:34:08.339Z,6.00
2023-03-12T17:36:38.128Z,6.10
2023-03-12T17:46:35.191Z,6.00
2023-03-12T18:04:00.339Z,6.00
2023-03-12T18:18:54.424Z,5.90
2023-03-12T18:21:26.666Z,5.80
2023-03-12T18:36:41.206Z,5.50
2023-03-12T18:49:12.540Z,5.40
2023-03-12T18:51:42.771Z,5.40
2023-03-12T19:04:12.932Z,5.40
2023-03-12T19:06:50.860Z,5.30
2023-03-12T19:21:49.644Z,5.40
2023-03-12T19:24:17.955Z,5.50
2023-03-12T19:26:46.040Z,5.50
2023-03-12T19:36:48.182Z,5.90
2023-03-12T19:39:21.523Z,5.90
2023-03-12T19:49:18.515Z,5.70
2023-03-12T19:51:48.193Z,2.50
2023-03-12T20:06:42.628Z,5.50
2023-03-12T20:09:12.062Z,5.40
2023-03-12T20:14:08.710Z,5.50
2023-03-12T20:21:36.519Z,5.50
2023-03-12T20:26:34.716Z,5.40
2023-03-12T20:38:59.408Z,5.30
2023-03-12T20:41:27.629Z,5.40
2023-03-12T20:43:58.371Z,5.30
2023-03-12T20:48:56.779Z,5.30
2023-03-12T20:51:26.235Z,5.30
2023-03-12T20:53:54.755Z,5.40
2023-03-12T21:01:21.924Z,5.30
2023-03-12T21:16:22.828Z,8.10
2023-03-12T21:28:46.601Z,5.70
2023-03-12T21:31:17.379Z,5.70
2023-03-12T21:33:47.240Z,5.70
2023-03-12T21:36:16.036Z,4.40
2023-03-12T21:38:44.574Z,5.70
2023-03-12T21:41:14.878Z,5.90
2023-03-12T21:43:46.934Z,6.00
2023-03-12T21:46:17.101Z,6.20
2023-03-12T21:48:48.321Z,6.30
